Time;durP1;ratioP1;P1;durP2;ratioP2;P2;SDS_P1;SDS_P2;PMS_P1;PMS_P2;Temp;Humidity;BMP_temperature;BMP_pressure;BME280_temperature;BME280_humidity;BME280_pressure;Samples;Min_cycle;Max_cycle;Signal;HPM_P1;HPM_P2
2022/03/09 05:02:58;;;;;;;17.40;8.57;;;-4.60;99.90;;;;;;4935496;28;95067;-77
2022/03/09 05:05:24;;;;;;;17.67;8.75;;;-4.50;99.90;;;;;;4937144;28;95437;-77
2022/03/09 05:07:49;;;;;;;19.00;9.00;;;-4.60;99.90;;;;;;4935279;28;95506;-77
2022/03/09 05:10:15;;;;;;;17.17;8.55;;;-4.60;99.90;;;;;;4937171;28;94978;-77
2022/03/09 05:12:40;;;;;;;15.32;8.23;;;-4.70;99.90;;;;;;4937166;28;95646;-78
2022/03/09 05:15:06;;;;;;;18.00;8.98;;;-4.80;99.90;;;;;;4938911;28;95020;-79
2022/03/09 05:17:32;;;;;;;17.30;8.27;;;-4.90;99.90;;;;;;4938220;28;94699;-78
2022/03/09 05:19:58;;;;;;;17.98;9.20;;;-5.00;99.90;;;;;;4935989;28;94414;-78
2022/03/09 05:22:24;;;;;;;21.60;9.70;;;-5.00;99.90;;;;;;4936120;28;96766;-78
2022/03/09 05:24:50;;;;;;;19.67;8.77;;;-4.90;99.90;;;;;;4938355;28;93984;-78
2022/03/09 05:27:15;;;;;;;17.30;8.52;;;-4.80;99.90;;;;;;4938142;28;94415;-78
2022/03/09 05:29:41;;;;;;;17.33;8.05;;;-4.80;99.90;;;;;;4919489;28;94442;-78
2022/03/09 05:32:07;;;;;;;19.00;7.75;;;-4.90;99.90;;;;;;4934921;28;100389;-78
2022/03/09 05:34:33;;;;;;;13.48;7.47;;;-4.90;99.90;;;;;;4936768;28;95119;-78
2022/03/09 05:36:59;;;;;;;19.80;8.07;;;-5.00;99.90;;;;;;4937393;28;94620;-78
2022/03/09 05:39:24;;;;;;;13.50;7.47;;;-4.90;99.90;;;;;;4937455;28;94530;-78
2022/03/09 05:41:50;;;;;;;13.82;8.18;;;-4.90;99.90;;;;;;4936889;28;94536;-78
2022/03/09 05:44:15;;;;;;;16.52;7.80;;;-4.90;99.90;;;;;;4936415;28;94874;-78
2022/03/09 05:46:41;;;;;;;17.13;9.02;;;-4.90;99.90;;;;;;4937292;28;94554;-78
2022/03/09 05:49:07;;;;;;;14.93;7.75;;;-4.70;99.90;;;;;;4937308;28;93699;-78
2022/03/09 05:51:33;;;;;;;15.77;8.13;;;-4.60;99.90;;;;;;4935071;28;97201;-78
2022/03/09 05:53:59;;;;;;;15.70;8.10;;;-4.60;99.90;;;;;;4938913;28;97343;-78
2022/03/09 05:56:25;;;;;;;17.25;8.65;;;-4.70;99.90;;;;;;4936680;28;95646;-78
2022/03/09 05:58:51;;;;;;;18.98;8.60;;;-4.70;99.90;;;;;;4937028;28;94359;-78
2022/03/09 06:01:16;;;;;;;19.38;10.00;;;-4.60;99.90;;;;;;4947264;28;96794;-78
2022/03/09 06:03:43;;;;;;;20.20;9.23;;;-4.60;99.90;;;;;;4958051;28;98011;-78
2022/03/09 06:06:08;;;;;;;22.80;9.50;;;-4.50;99.90;;;;;;4960040;28;94736;-78
2022/03/09 06:08:34;;;;;;;19.98;9.43;;;-4.40;99.90;;;;;;4929103;28;94819;-78
2022/03/09 06:10:59;;;;;;;20.30;9.65;;;-4.40;99.90;;;;;;4939293;28;96812;-79
2022/03/09 06:13:25;;;;;;;21.17;9.73;;;-4.50;99.90;;;;;;4956710;28;97879;-79
2022/03/09 06:15:51;;;;;;;19.15;9.68;;;-4.40;99.90;;;;;;4958837;28;94493;-78
2022/03/09 06:18:16;;;;;;;20.65;9.63;;;-4.40;99.90;;;;;;4959530;28;94544;-77
2022/03/09 06:20:42;;;;;;;22.58;9.88;;;-4.30;99.90;;;;;;4958613;28;95442;-79
2022/03/09 06:23:07;;;;;;;17.88;9.48;;;-4.30;99.90;;;;;;4958055;28;97282;-79
2022/03/09 06:25:37;;;;;;;18.67;9.40;;;-4.40;99.90;;;;;;4959147;28;94411;-78
2022/03/09 06:28:02;;;;;;;20.63;8.65;;;-4.40;99.90;;;;;;4962112;28;94472;-78
2022/03/09 06:30:28;;;;;;;20.23;9.65;;;-4.40;99.90;;;;;;4958659;28;97230;-78
2022/03/09 06:32:54;;;;;;;18.27;9.07;;;-4.30;99.90;;;;;;4962115;28;96727;-78
2022/03/09 06:35:20;;;;;;;17.48;9.02;;;-4.30;99.90;;;;;;4963612;28;94423;-80
2022/03/09 06:37:45;;;;;;;17.92;8.88;;;-4.40;99.90;;;;;;4964466;28;93839;-79
2022/03/09 06:40:11;;;;;;;16.83;9.40;;;-4.40;99.90;;;;;;4966715;28;95168;-78
2022/03/09 06:42:38;;;;;;;21.60;9.98;;;-4.30;99.90;;;;;;4963626;28;95463;-79
2022/03/09 06:45:04;;;;;;;22.52;11.07;;;-4.20;99.90;;;;;;4964064;28;95499;-79
2022/03/09 06:47:30;;;;;;;23.50;11.30;;;-4.20;99.90;;;;;;4967379;28;94485;-79
2022/03/09 06:49:56;;;;;;;21.48;12.68;;;-4.10;99.90;;;;;;4946126;28;96799;-80
2022/03/09 06:52:21;;;;;;;23.70;12.10;;;-3.80;99.90;;;;;;4961185;28;94514;-77
2022/03/09 06:54:47;;;;;;;24.38;12.05;;;-3.70;99.90;;;;;;4957483;28;94532;-78
2022/03/09 06:57:13;;;;;;;24.20;11.90;;;-3.70;99.90;;;;;;4941568;28;94702;-80
2022/03/09 06:59:38;;;;;;;21.98;11.82;;;-3.60;99.90;;;;;;4938648;28;95439;-78
2022/03/09 07:02:04;;;;;;;17.92;10.27;;;-3.60;99.90;;;;;;4939081;28;95296;-78
2022/03/09 07:04:30;;;;;;;17.63;9.73;;;-3.50;99.90;;;;;;4939723;28;94529;-80
2022/03/09 07:06:56;;;;;;;16.95;9.57;;;-3.40;99.90;;;;;;4941265;28;94498;-79
2022/03/09 07:09:24;;;;;;;19.13;9.27;;;-3.30;99.90;;;;;;4922997;28;97861;-80
2022/03/09 07:11:49;;;;;;;20.98;9.68;;;-3.20;99.90;;;;;;4939530;28;95882;-79
2022/03/09 07:14:15;;;;;;;20.88;10.43;;;-3.10;99.90;;;;;;4954626;28;94409;-77
2022/03/09 07:16:41;;;;;;;18.85;9.82;;;-3.00;99.90;;;;;;4938993;28;94391;-78
2022/03/09 07:19:06;;;;;;;22.92;10.68;;;-2.90;99.90;;;;;;4956686;28;96757;-78
2022/03/09 07:21:32;;;;;;;20.02;9.40;;;-2.80;99.90;;;;;;4956404;28;95664;-77
2022/03/09 07:23:57;;;;;;;15.68;9.40;;;-2.70;99.90;;;;;;4940398;28;94367;-78
2022/03/09 07:26:23;;;;;;;16.77;9.35;;;-2.50;99.90;;;;;;4932757;28;93672;-78
2022/03/09 07:28:48;;;;;;;14.30;8.50;;;-2.40;99.90;;;;;;4937479;28;98333;-77
2022/03/09 07:31:14;;;;;;;14.40;7.90;;;-2.30;99.90;;;;;;4938285;28;94635;-79
2022/03/09 07:33:40;;;;;;;13.52;7.85;;;-2.20;99.90;;;;;;4938197;28;95543;-79
2022/03/09 07:36:05;;;;;;;12.65;7.00;;;-2.10;99.90;;;;;;4939053;28;94623;-78
2022/03/09 07:38:32;;;;;;;14.55;8.00;;;-1.90;99.90;;;;;;4946158;28;94506;-79
2022/03/09 07:40:58;;;;;;;14.35;7.85;;;-1.80;99.90;;;;;;4948844;28;94494;-78
2022/03/09 07:43:23;;;;;;;13.70;7.72;;;-1.70;99.90;;;;;;4948739;28;94356;-79
2022/03/09 07:45:49;;;;;;;13.25;7.60;;;-1.60;99.90;;;;;;4938364;28;94589;-78
2022/03/09 07:48:14;;;;;;;13.65;7.00;;;-1.50;99.90;;;;;;4937998;28;94374;-79
2022/03/09 07:50:40;;;;;;;13.40;6.88;;;-1.40;99.90;;;;;;4938036;28;93884;-76
2022/03/09 07:53:07;;;;;;;12.50;7.20;;;-1.20;99.90;;;;;;4925122;28;94260;-78
2022/03/09 07:55:34;;;;;;;11.80;7.30;;;-1.10;99.90;;;;;;4941439;28;94555;-79
2022/03/09 07:58:00;;;;;;;13.00;7.43;;;-1.00;99.90;;;;;;4923819;28;99181;-79
2022/03/09 08:00:27;;;;;;;16.20;8.02;;;-0.80;99.90;;;;;;4940994;28;96220;-79
2022/03/09 08:02:52;;;;;;;12.27;6.80;;;-0.70;99.90;;;;;;4940978;28;94587;-79
2022/03/09 08:05:18;;;;;;;13.43;7.45;;;-0.50;99.90;;;;;;4939753;28;94479;-79
2022/03/09 08:07:45;;;;;;;12.82;7.13;;;-0.30;99.90;;;;;;4938123;28;97012;-78
2022/03/09 08:10:12;;;;;;;13.70;7.80;;;-0.20;99.90;;;;;;4935497;28;97686;-78
2022/03/09 08:12:38;;;;;;;14.93;7.57;;;0.00;99.90;;;;;;4936089;28;94539;-78
2022/03/09 08:15:05;;;;;;;15.90;7.38;;;0.10;99.90;;;;;;4937665;28;93738;-80
2022/03/09 08:17:31;;;;;;;12.23;6.93;;;0.20;99.90;;;;;;4936893;28;99356;-79
2022/03/09 08:19:56;;;;;;;15.10;7.22;;;0.40;99.90;;;;;;4937944;28;94667;-79
2022/03/09 08:22:22;;;;;;;12.93;7.75;;;0.60;99.90;;;;;;4938544;28;95439;-78
2022/03/09 08:24:48;;;;;;;12.70;7.30;;;0.70;99.90;;;;;;4936784;28;94383;-78
2022/03/09 08:27:14;;;;;;;13.75;8.20;;;0.90;99.90;;;;;;4936779;28;94408;-79
2022/03/09 08:29:40;;;;;;;12.13;7.50;;;1.10;99.90;;;;;;4936374;28;94339;-78
2022/03/09 08:32:06;;;;;;;13.88;7.80;;;1.30;99.90;;;;;;4937132;28;94867;-78
2022/03/09 08:34:32;;;;;;;13.05;7.45;;;1.50;99.90;;;;;;4935497;28;94431;-78
2022/03/09 08:36:57;;;;;;;14.07;7.55;;;1.70;99.90;;;;;;4936683;28;95277;-79
2022/03/09 08:39:23;;;;;;;15.30;7.85;;;1.90;99.90;;;;;;4937196;28;95203;-79
2022/03/09 08:41:48;;;;;;;12.52;7.22;;;2.00;99.90;;;;;;4940572;28;94880;-81
2022/03/09 08:44:16;;;;;;;13.63;7.95;;;2.30;99.90;;;;;;4942558;28;94947;-80
2022/03/09 08:46:41;;;;;;;21.00;10.35;;;2.40;99.10;;;;;;4945855;28;95658;-80
2022/03/09 08:49:07;;;;;;;18.23;11.15;;;2.60;99.20;;;;;;4944466;28;95126;-80
2022/03/09 08:51:32;;;;;;;16.20;10.18;;;2.80;99.30;;;;;;4942972;28;94475;-82
2022/03/09 08:53:58;;;;;;;15.27;9.50;;;3.00;98.70;;;;;;4944466;28;94383;-81
2022/03/09 08:56:23;;;;;;;14.90;8.73;;;3.20;98.00;;;;;;4924213;28;96978;-82
2022/03/09 08:58:49;;;;;;;18.65;8.93;;;3.30;97.30;;;;;;4951603;28;94466;-82
2022/03/09 09:01:15;;;;;;;16.95;8.75;;;3.50;97.40;;;;;;4960334;28;94544;-82
2022/03/09 09:03:41;;;;;;;17.20;9.30;;;3.60;97.30;;;;;;4943518;28;93837;-82
2022/03/09 09:06:06;;;;;;;17.40;9.93;;;3.80;97.30;;;;;;4959182;28;98273;-82
2022/03/09 09:08:32;;;;;;;16.73;9.68;;;3.90;97.00;;;;;;4957134;28;94564;-81
2022/03/09 09:10:57;;;;;;;16.73;9.57;;;4.10;96.10;;;;;;4938878;28;95611;-81
2022/03/09 09:13:23;;;;;;;15.95;9.40;;;4.20;96.40;;;;;;4961079;28;94312;-81
2022/03/09 09:15:49;;;;;;;18.88;9.82;;;4.30;94.70;;;;;;4958843;28;94567;-83
2022/03/09 09:18:15;;;;;;;16.73;9.70;;;4.40;95.10;;;;;;4960094;28;94511;-83
2022/03/09 09:20:41;;;;;;;17.08;9.38;;;4.50;94.50;;;;;;4959266;28;94511;-80
2022/03/09 09:23:06;;;;;;;16.65;9.45;;;4.50;93.90;;;;;;4958594;28;94625;-82
2022/03/09 09:25:32;;;;;;;18.50;9.98;;;4.60;94.30;;;;;;4958838;28;94756;-81
2022/03/09 09:27:58;;;;;;;19.42;10.02;;;4.80;93.80;;;;;;4939991;28;96778;-81
2022/03/09 09:30:26;;;;;;;19.27;10.65;;;4.90;92.80;;;;;;4958305;28;94323;-81
2022/03/09 09:32:52;;;;;;;15.38;9.32;;;5.00;93.30;;;;;;4956345;28;94589;-81
2022/03/09 09:35:18;;;;;;;16.60;9.63;;;5.10;93.20;;;;;;4939667;28;98897;-82
2022/03/09 09:37:45;;;;;;;17.55;9.77;;;5.20;92.70;;;;;;4960809;28;94957;-81
2022/03/09 09:40:13;;;;;;;21.13;9.13;;;5.20;92.40;;;;;;4960404;28;94577;-80
2022/03/09 09:42:39;;;;;;;19.13;10.20;;;5.30;92.20;;;;;;4961152;28;94553;-81
2022/03/09 09:45:05;;;;;;;20.77;10.20;;;5.60;92.30;;;;;;4942194;28;97768;-81
2022/03/09 09:47:32;;;;;;;18.20;9.25;;;5.70;92.20;;;;;;4959129;28;95780;-80
2022/03/09 09:49:58;;;;;;;18.13;8.98;;;5.90;91.50;;;;;;4959126;28;94733;-80
2022/03/09 09:52:33;;;;;;;15.10;8.75;;;6.10;90.80;;;;;;4960501;28;93972;-80
2022/03/09 09:55:00;;;;;;;18.35;8.52;;;6.20;88.20;;;;;;4949801;28;98044;-78
2022/03/09 09:57:27;;;;;;;14.23;9.25;;;6.40;88.00;;;;;;4950009;28;96690;-80
2022/03/09 09:59:54;;;;;;;17.73;9.73;;;6.50;88.00;;;;;;4960476;28;95398;-78
2022/03/09 10:02:20;;;;;;;17.42;9.40;;;6.60;87.50;;;;;;4960064;28;94685;-79
2022/03/09 10:04:47;;;;;;;18.30;9.38;;;6.60;88.20;;;;;;4961893;28;95741;-83
2022/03/09 10:07:13;;;;;;;20.02;9.80;;;6.70;87.00;;;;;;4942303;28;95062;-80
2022/03/09 10:09:43;;;;;;;14.85;9.20;;;6.90;86.70;;;;;;4943835;28;94444;-81
2022/03/09 10:12:12;;;;;;;15.40;10.13;;;6.90;86.70;;;;;;4936777;28;94567;-82
2022/03/09 10:14:47;;;;;;;18.15;8.85;;;7.00;84.70;;;;;;4941857;28;94786;-79
2022/03/09 10:17:26;;;;;;;17.20;9.60;;;7.00;84.60;;;;;;4922066;28;96878;-78
2022/03/09 10:20:06;;;;;;;16.10;9.27;;;7.10;82.60;;;;;;4939529;28;94434;-78
2022/03/09 10:22:44;;;;;;;17.27;9.70;;;7.20;83.50;;;;;;4940974;28;94406;-81
2022/03/09 10:25:09;;;;;;;16.92;9.27;;;7.30;84.20;;;;;;4941665;28;97285;-81
2022/03/09 10:27:42;;;;;;;16.38;9.13;;;7.40;82.70;;;;;;4943847;28;96389;-81
2022/03/09 10:30:16;;;;;;;22.35;9.40;;;7.40;81.60;;;;;;4943569;28;94672;-81
2022/03/09 10:32:54;;;;;;;24.90;9.93;;;7.50;82.10;;;;;;4944100;28;94516;-79
2022/03/09 10:35:40;;;;;;;14.07;9.23;;;7.70;80.80;;;;;;4942645;28;97381;-79
2022/03/09 10:38:17;;;;;;;15.88;9.07;;;7.80;80.50;;;;;;4946599;28;94436;-80
2022/03/09 10:40:43;;;;;;;17.40;9.18;;;7.90;79.60;;;;;;4948459;28;94842;-79
2022/03/09 10:43:13;;;;;;;15.45;9.35;;;8.00;81.00;;;;;;4928643;28;93782;-80
2022/03/09 10:46:18;;;;;;;17.70;9.75;;;8.10;79.60;;;;;;4943937;28;97849;-79
2022/03/09 10:48:49;;;;;;;15.35;9.10;;;8.30;77.00;;;;;;4922053;28;98301;-80
2022/03/09 10:51:29;;;;;;;14.98;9.23;;;8.50;76.30;;;;;;4943156;28;95335;-79
2022/03/09 10:53:55;;;;;;;14.77;9.18;;;8.60;78.80;;;;;;4942561;28;94999;-80
2022/03/09 10:56:27;;;;;;;14.43;9.00;;;8.70;76.10;;;;;;4943628;28;94553;-79
2022/03/09 10:58:52;;;;;;;15.27;9.32;;;8.70;74.40;;;;;;4926388;28;97736;-80
2022/03/09 11:01:19;;;;;;;14.30;8.85;;;8.60;74.30;;;;;;4947756;28;95433;-79
2022/03/09 11:03:46;;;;;;;16.67;9.48;;;8.60;73.70;;;;;;4938854;28;94591;-79
2022/03/09 11:06:12;;;;;;;15.13;9.23;;;8.70;72.20;;;;;;4940135;28;96662;-79
2022/03/09 11:08:39;;;;;;;14.43;9.05;;;8.80;72.80;;;;;;4940186;28;93812;-80
2022/03/09 11:11:06;;;;;;;15.15;9.65;;;8.90;72.80;;;;;;4942625;28;94428;-79
2022/03/09 11:13:34;;;;;;;15.15;9.88;;;9.10;71.30;;;;;;4940532;28;94611;-79
2022/03/09 11:16:01;;;;;;;13.75;9.82;;;9.30;70.30;;;;;;4939263;28;96695;-82
2022/03/09 11:18:28;;;;;;;17.52;10.02;;;9.40;70.30;;;;;;4938477;28;95908;-78
2022/03/09 11:20:57;;;;;;;14.27;9.60;;;9.40;71.60;;;;;;4937565;28;94385;-78
2022/03/09 11:23:24;;;;;;;14.38;9.57;;;9.50;71.00;;;;;;4939705;28;94516;-80
2022/03/09 11:26:10;;;;;;;16.77;9.35;;;9.50;69.60;;;;;;4920658;28;97919;-77
2022/03/09 11:28:38;;;;;;;17.00;9.77;;;9.50;69.40;;;;;;4939269;28;94958;-79
2022/03/09 11:31:07;;;;;;;16.13;9.95;;;9.60;69.60;;;;;;4953484;28;94681;-79
2022/03/09 11:33:52;;;;;;;14.35;10.05;;;9.60;70.00;;;;;;4958587;28;93779;-80
2022/03/09 11:36:21;;;;;;;14.98;10.02;;;9.80;69.60;;;;;;4957814;28;95314;-80
2022/03/09 11:38:53;;;;;;;14.95;9.82;;;10.00;67.10;;;;;;4956385;28;98442;-79
2022/03/09 11:41:22;;;;;;;14.38;10.05;;;10.10;68.20;;;;;;4940768;28;95807;-81
2022/03/09 11:43:49;;;;;;;16.50;10.00;;;10.20;67.40;;;;;;4959908;28;94402;-81
2022/03/09 11:46:15;;;;;;;14.55;9.82;;;10.30;67.00;;;;;;4958141;28;94426;-81
2022/03/09 11:48:54;;;;;;;14.13;9.38;;;10.30;67.50;;;;;;4959265;28;95192;-79
2022/03/09 11:51:22;;;;;;;16.15;10.32;;;10.30;67.70;;;;;;4959702;28;94509;-79
2022/03/09 11:53:58;;;;;;;16.67;10.00;;;10.40;66.50;;;;;;4941019;28;94966;-80
2022/03/09 11:56:37;;;;;;;14.68;10.05;;;10.50;67.30;;;;;;4940494;28;97086;-82
2022/03/09 11:59:20;;;;;;;14.60;9.85;;;10.70;65.70;;;;;;4959400;28;95092;-79
2022/03/09 12:01:58;;;;;;;16.50;10.50;;;10.70;65.20;;;;;;4957204;28;94402;-80
2022/03/09 12:04:54;;;;;;;15.60;10.20;;;10.90;65.70;;;;;;4959295;28;94553;-80
2022/03/09 12:07:29;;;;;;;17.73;10.85;;;11.10;64.10;;;;;;4957826;28;97756;-80
2022/03/09 12:09:59;;;;;;;16.95;9.95;;;11.00;63.60;;;;;;4956696;28;98149;-80
2022/03/09 12:12:30;;;;;;;15.73;10.40;;;11.00;64.00;;;;;;4959030;28;94363;-80
2022/03/09 12:15:07;;;;;;;15.50;10.68;;;11.10;64.00;;;;;;4941299;28;94367;-80
2022/03/09 12:17:34;;;;;;;19.58;10.30;;;11.10;64.40;;;;;;4939431;28;97105;-83
2022/03/09 12:20:29;;;;;;;15.00;10.10;;;11.20;64.60;;;;;;4954856;28;97111;-82
2022/03/09 12:23:04;;;;;;;17.25;10.60;;;11.30;64.30;;;;;;4959161;28;94634;-81
2022/03/09 12:25:43;;;;;;;20.38;10.98;;;11.30;64.20;;;;;;4951901;28;93809;-81
2022/03/09 12:28:28;;;;;;;16.10;9.88;;;11.20;63.30;;;;;;4954456;28;96917;-80
2022/03/09 12:30:59;;;;;;;16.02;10.40;;;11.30;63.80;;;;;;4942870;28;98213;-80
2022/03/09 12:33:28;;;;;;;15.18;10.48;;;11.40;62.30;;;;;;4952546;28;95330;-80
2022/03/09 12:36:06;;;;;;;17.55;11.50;;;11.60;62.50;;;;;;4957599;28;94509;-80
2022/03/09 12:38:36;;;;;;;18.20;10.73;;;11.90;63.50;;;;;;4952775;28;94572;-80
2022/03/09 12:41:02;;;;;;;16.67;10.48;;;12.20;62.20;;;;;;4958011;28;95332;-80
2022/03/09 12:43:45;;;;;;;16.52;10.90;;;12.40;61.50;;;;;;4941890;28;94461;-80
2022/03/09 12:46:11;;;;;;;20.13;11.35;;;12.60;61.30;;;;;;4961002;28;94445;-80
2022/03/09 12:48:39;;;;;;;17.00;11.48;;;12.70;60.90;;;;;;4942887;28;96786;-80
2022/03/09 12:51:05;;;;;;;16.63;10.70;;;12.50;61.70;;;;;;4941903;28;97694;-80
2022/03/09 12:53:30;;;;;;;18.00;11.02;;;12.70;61.60;;;;;;4957371;28;94564;-80
2022/03/09 12:55:56;;;;;;;13.93;10.55;;;12.80;58.80;;;;;;4960174;28;94634;-80
2022/03/09 12:58:23;;;;;;;18.48;10.95;;;12.80;59.50;;;;;;4960536;28;96244;-81
2022/03/09 13:01:03;;;;;;;15.13;10.50;;;12.90;59.10;;;;;;4951003;28;95995;-81
2022/03/09 13:03:28;;;;;;;13.60;9.68;;;13.20;60.20;;;;;;4937486;28;95073;-79
2022/03/09 13:05:54;;;;;;;15.23;10.68;;;13.40;58.90;;;;;;4937322;28;94483;-79
2022/03/09 13:08:19;;;;;;;16.48;10.68;;;13.40;57.50;;;;;;4941910;28;95484;-81
2022/03/09 13:10:49;;;;;;;17.65;11.30;;;13.40;59.80;;;;;;4943454;28;95661;-80
2022/03/09 13:13:15;;;;;;;14.95;10.90;;;13.60;58.00;;;;;;4948275;28;94492;-80
2022/03/09 13:15:42;;;;;;;17.27;10.30;;;13.60;57.50;;;;;;4948273;28;93604;-80
2022/03/09 13:18:09;;;;;;;16.80;10.93;;;13.50;58.10;;;;;;4925983;28;96722;-80
2022/03/09 13:20:37;;;;;;;18.85;10.65;;;13.60;59.60;;;;;;4942142;28;95209;-79
2022/03/09 13:23:03;;;;;;;16.55;10.63;;;13.70;57.10;;;;;;4941574;28;95595;-79
2022/03/09 13:25:30;;;;;;;15.77;11.10;;;13.80;56.30;;;;;;4933804;28;94516;-79
2022/03/09 13:28:00;;;;;;;16.48;10.88;;;13.70;56.20;;;;;;4927745;28;98296;-79
2022/03/09 13:30:28;;;;;;;20.40;11.43;;;13.60;57.10;;;;;;4923946;28;97028;-79
2022/03/09 13:32:53;;;;;;;18.02;11.38;;;13.30;58.50;;;;;;4946303;28;94570;-79
2022/03/09 13:35:21;;;;;;;18.00;10.93;;;13.30;59.20;;;;;;4943990;28;94365;-79
2022/03/09 13:37:47;;;;;;;16.65;10.98;;;13.40;61.40;;;;;;4940365;28;97268;-79
2022/03/09 13:40:13;;;;;;;16.23;11.20;;;13.50;58.20;;;;;;4943056;28;93875;-79
2022/03/09 13:42:41;;;;;;;16.98;11.40;;;13.50;57.70;;;;;;4946872;28;94459;-79
2022/03/09 13:45:22;;;;;;;17.90;11.15;;;13.60;57.40;;;;;;4948224;28;94469;-79
2022/03/09 13:47:58;;;;;;;18.08;11.05;;;13.40;57.10;;;;;;4945368;28;95553;-79
2022/03/09 13:50:48;;;;;;;16.52;11.57;;;13.30;57.30;;;;;;4943392;28;96045;-79
2022/03/09 13:53:15;;;;;;;17.67;11.55;;;13.20;57.10;;;;;;4941783;28;94415;-79
2022/03/09 13:55:52;;;;;;;17.80;11.70;;;13.20;56.80;;;;;;4941250;28;94466;-79
2022/03/09 13:58:22;;;;;;;21.70;12.75;;;13.10;56.90;;;;;;4949334;28;94365;-80
2022/03/09 14:00:47;;;;;;;14.85;10.93;;;13.00;57.40;;;;;;4949681;28;94645;-80
2022/03/09 14:03:14;;;;;;;16.85;11.48;;;12.80;56.90;;;;;;4954591;28;94806;-79
2022/03/09 14:05:44;;;;;;;28.23;11.40;;;12.80;57.40;;;;;;4954400;28;93753;-79
2022/03/09 14:08:31;;;;;;;19.00;12.27;;;12.90;59.10;;;;;;4942547;28;96202;-78
2022/03/09 14:11:15;;;;;;;19.10;11.52;;;13.00;59.30;;;;;;4941756;28;95275;-78
2022/03/09 14:14:07;;;;;;;18.88;11.05;;;12.80;57.70;;;;;;4940698;28;95535;-79
2022/03/09 14:16:36;;;;;;;21.17;11.82;;;13.00;57.00;;;;;;4941034;28;94819;-78
2022/03/09 14:19:05;;;;;;;20.80;12.25;;;13.20;57.40;;;;;;4944582;28;95349;-78
2022/03/09 14:21:31;;;;;;;17.45;11.60;;;13.20;57.00;;;;;;4951922;28;97974;-78
2022/03/09 14:23:57;;;;;;;20.70;12.27;;;13.30;57.30;;;;;;4952362;28;95132;-78
2022/03/09 14:26:39;;;;;;;18.85;11.27;;;13.30;56.80;;;;;;4952100;28;94524;-80
2022/03/09 14:29:05;;;;;;;19.55;11.68;;;13.40;56.40;;;;;;4949385;28;96773;-78
2022/03/09 14:31:32;;;;;;;19.98;11.82;;;13.40;56.70;;;;;;4950546;28;97809;-79
2022/03/09 14:33:58;;;;;;;20.70;11.25;;;13.30;56.50;;;;;;4952679;28;94222;-79
2022/03/09 14:36:24;;;;;;;20.40;11.93;;;13.40;57.10;;;;;;4952048;28;94462;-79
2022/03/09 14:38:49;;;;;;;23.45;14.38;;;13.60;55.90;;;;;;4944644;28;96586;-79
2022/03/09 14:41:16;;;;;;;21.35;12.30;;;14.30;55.40;;;;;;4941327;28;95136;-78
2022/03/09 14:43:44;;;;;;;18.25;11.90;;;15.40;53.80;;;;;;4938168;28;94476;-78
2022/03/09 14:46:10;;;;;;;21.05;12.13;;;16.40;51.60;;;;;;4936712;28;94497;-78
2022/03/09 14:48:36;;;;;;;18.83;12.52;;;17.30;50.70;;;;;;4936656;28;97752;-78
2022/03/09 14:51:01;;;;;;;20.70;12.75;;;18.30;49.20;;;;;;4937320;28;99066;-78
2022/03/09 14:53:35;;;;;;;22.58;12.50;;;19.00;47.20;;;;;;4938394;28;94815;-78
2022/03/09 14:56:08;;;;;;;18.58;11.82;;;19.60;46.20;;;;;;4954174;28;93759;-79
2022/03/09 14:58:35;;;;;;;15.57;11.68;;;20.20;45.10;;;;;;4940065;28;95342;-79
2022/03/09 15:01:01;;;;;;;18.60;12.55;;;20.90;43.40;;;;;;4938244;28;96863;-79
2022/03/09 15:03:28;;;;;;;18.63;12.35;;;20.70;42.50;;;;;;4940707;28;95376;-78
2022/03/09 15:05:57;;;;;;;17.13;11.77;;;20.70;41.50;;;;;;4940079;28;94546;-78
2022/03/09 15:08:23;;;;;;;18.38;12.38;;;20.40;45.30;;;;;;4940690;28;97917;-79
2022/03/09 15:10:50;;;;;;;16.92;12.38;;;20.90;42.50;;;;;;4939015;28;96688;-79
2022/03/09 15:13:16;;;;;;;16.60;12.05;;;20.70;42.40;;;;;;4941767;28;94035;-78
2022/03/09 15:15:41;;;;;;;15.98;12.13;;;20.70;42.20;;;;;;4936314;28;94411;-77
2022/03/09 15:18:07;;;;;;;19.50;12.15;;;20.20;41.40;;;;;;4936856;28;94988;-77
2022/03/09 15:20:32;;;;;;;18.75;12.07;;;20.40;42.90;;;;;;4936755;28;94046;-77
2022/03/09 15:22:58;;;;;;;19.73;15.50;;;20.60;41.10;;;;;;4937057;28;94383;-78
2022/03/09 15:25:24;;;;;;;16.05;12.07;;;20.80;40.90;;;;;;4936925;28;94691;-78
2022/03/09 15:27:49;;;;;;;33.42;22.27;;;21.20;39.50;;;;;;4936349;28;95438;-78
2022/03/09 15:30:15;;;;;;;18.13;13.82;;;21.90;39.20;;;;;;4941399;28;97187;-79
2022/03/09 15:32:40;;;;;;;20.92;14.77;;;22.60;38.50;;;;;;4938669;28;94475;-78
2022/03/09 15:35:06;;;;;;;18.17;12.90;;;22.30;39.90;;;;;;4938768;28;94495;-78
2022/03/09 15:37:34;;;;;;;17.95;13.57;;;22.10;40.30;;;;;;4932163;28;95722;-78
2022/03/09 15:40:00;;;;;;;17.05;12.80;;;20.60;41.30;;;;;;4901333;28;98366;-79
2022/03/09 15:42:25;;;;;;;19.02;12.95;;;20.40;41.40;;;;;;4919352;28;94441;-80
2022/03/09 15:44:51;;;;;;;19.00;13.30;;;20.40;43.00;;;;;;4919077;28;93747;-77
2022/03/09 15:47:17;;;;;;;17.73;13.32;;;20.60;41.60;;;;;;4920752;28;101009;-78
2022/03/09 15:49:42;;;;;;;23.33;13.73;;;21.00;41.50;;;;;;4934136;28;94364;-81
2022/03/09 15:52:11;;;;;;;17.80;13.70;;;20.80;41.20;;;;;;4918870;28;95448;-83
2022/03/09 15:54:40;;;;;;;20.92;12.98;;;20.70;41.30;;;;;;4919012;28;94606;-83
2022/03/09 15:57:06;;;;;;;17.60;12.75;;;20.20;41.90;;;;;;4937501;28;95217;-81
2022/03/09 15:59:33;;;;;;;15.60;12.05;;;20.10;42.40;;;;;;4939520;28;94405;-83
2022/03/09 16:01:59;;;;;;;17.55;13.32;;;20.40;41.50;;;;;;4939200;28;94376;-83
2022/03/09 16:04:24;;;;;;;19.75;13.00;;;20.10;41.90;;;;;;4921016;28;94519;-83
2022/03/09 16:06:50;;;;;;;18.40;13.07;;;19.60;41.80;;;;;;4938536;28;96581;-82
2022/03/09 16:09:15;;;;;;;22.60;13.10;;;19.50;42.50;;;;;;4922002;28;97815;-79
2022/03/09 16:11:41;;;;;;;18.85;13.57;;;19.50;42.10;;;;;;4940912;28;94513;-79
2022/03/09 16:14:06;;;;;;;21.20;13.63;;;19.40;43.70;;;;;;4922723;28;94719;-79
2022/03/09 16:16:35;;;;;;;22.17;13.55;;;19.00;44.40;;;;;;4921319;28;98897;-81
2022/03/09 16:19:00;;;;;;;18.58;13.55;;;18.50;43.70;;;;;;4939441;28;96321;-79
2022/03/09 16:21:26;;;;;;;22.42;13.55;;;17.90;44.10;;;;;;4939196;28;94381;-79
2022/03/09 16:23:53;;;;;;;27.95;14.10;;;17.70;46.10;;;;;;4936183;28;94578;-81
2022/03/09 16:26:20;;;;;;;20.95;13.45;;;17.40;46.50;;;;;;4938223;28;95382;-78
2022/03/09 16:28:46;;;;;;;26.38;14.35;;;16.90;47.80;;;;;;4922479;28;96265;-78
2022/03/09 16:31:13;;;;;;;22.48;14.02;;;16.50;48.30;;;;;;4936849;28;94490;-78
2022/03/09 16:33:38;;;;;;;23.80;13.45;;;16.20;50.20;;;;;;4937710;28;93720;-78
2022/03/09 16:36:04;;;;;;;21.70;14.98;;;15.50;51.10;;;;;;4937382;28;96564;-81
2022/03/09 16:38:30;;;;;;;21.67;13.75;;;14.70;51.90;;;;;;4938417;28;94876;-81
2022/03/09 16:40:55;;;;;;;23.33;13.90;;;13.70;53.90;;;;;;4919142;28;95526;-80
2022/03/09 16:43:22;;;;;;;22.35;14.30;;;12.80;56.30;;;;;;4936409;28;94563;-81
2022/03/09 16:45:48;;;;;;;24.10;14.30;;;12.10;57.70;;;;;;4936305;28;95132;-81
2022/03/09 16:48:16;;;;;;;23.42;14.32;;;11.50;58.80;;;;;;4911351;28;97675;-81
2022/03/09 16:50:41;;;;;;;21.50;14.32;;;11.10;59.50;;;;;;4917051;28;95179;-81
2022/03/09 16:53:07;;;;;;;25.42;14.80;;;10.70;61.50;;;;;;4920027;28;94569;-82
2022/03/09 16:55:32;;;;;;;23.55;15.18;;;10.40;62.70;;;;;;4938568;28;94587;-81
2022/03/09 16:57:58;;;;;;;20.17;13.38;;;10.00;63.60;;;;;;4919394;28;96238;-81
2022/03/09 17:00:24;;;;;;;27.15;14.45;;;9.70;65.50;;;;;;4936903;28;94839;-80
2022/03/09 17:02:52;;;;;;;26.27;13.68;;;9.30;66.90;;;;;;4938534;28;94474;-82
2022/03/09 17:05:21;;;;;;;23.73;13.93;;;9.00;68.90;;;;;;4937408;28;95476;-78
2022/03/09 17:07:47;;;;;;;22.65;13.98;;;8.70;70.30;;;;;;4936934;28;99465;-79
2022/03/09 17:10:13;;;;;;;21.92;12.95;;;8.30;72.30;;;;;;4917763;28;94572;-81
2022/03/09 17:12:39;;;;;;;24.92;13.75;;;8.00;74.40;;;;;;4905786;28;94522;-84
2022/03/09 17:15:06;;;;;;;20.88;13.27;;;7.70;76.10;;;;;;4920385;28;97312;-81
2022/03/09 17:17:35;;;;;;;26.63;15.30;;;7.40;77.80;;;;;;4918590;28;96021;-81
2022/03/09 17:20:03;;;;;;;24.05;13.80;;;7.10;79.70;;;;;;4934840;28;94590;-80
2022/03/09 17:22:29;;;;;;;25.67;13.93;;;6.80;80.80;;;;;;4935993;28;93785;-81
2022/03/09 17:24:55;;;;;;;25.95;13.85;;;6.50;82.40;;;;;;4931658;28;94601;-79
2022/03/09 17:27:21;;;;;;;24.48;14.50;;;6.30;84.20;;;;;;4926115;28;95254;-81
2022/03/09 17:29:47;;;;;;;25.65;15.23;;;6.10;85.50;;;;;;4937202;28;95541;-80
2022/03/09 17:32:15;;;;;;;24.75;14.52;;;5.90;86.70;;;;;;4937917;28;94542;-80
2022/03/09 17:34:42;;;;;;;25.15;14.27;;;5.60;87.90;;;;;;4920118;28;99463;-84
2022/03/09 17:37:08;;;;;;;25.67;14.18;;;5.40;89.10;;;;;;4936868;28;94584;-84
2022/03/09 17:39:33;;;;;;;25.73;13.63;;;5.30;90.00;;;;;;4936538;28;94547;-80
2022/03/09 17:41:59;;;;;;;24.10;13.98;;;5.10;90.60;;;;;;4943164;28;94458;-81